createdAt,value
2023-02-03T00:02:00.004Z,20.33
2023-02-03T00:04:26.279Z,21.73
2023-02-03T00:06:52.560Z,18.00
2023-02-03T00:09:20.120Z,20.20
2023-02-03T00:11:46.493Z,19.03
2023-02-03T00:14:12.665Z,21.80
2023-02-03T00:16:38.921Z,19.87
2023-02-03T00:19:05.134Z,19.83
2023-02-03T00:21:31.337Z,19.10
2023-02-03T00:23:57.575Z,20.90
2023-02-03T00:26:25.225Z,18.97
2023-02-03T00:28:51.393Z,19.90
2023-02-03T00:31:23.682Z,17.57
2023-02-03T00:33:56.262Z,19.07
2023-02-03T00:36:24.025Z,19.27
2023-02-03T00:38:50.360Z,17.87
2023-02-03T00:41:17.346Z,19.67
2023-02-03T00:43:43.720Z,20.77
2023-02-03T00:46:10.110Z,20.47
2023-02-03T00:48:36.312Z,16.67
2023-02-03T00:51:02.588Z,16.97
2023-02-03T00:53:28.860Z,17.50
2023-02-03T00:55:55.188Z,25.00
2023-02-03T00:58:21.933Z,15.17
2023-02-03T01:00:48.153Z,19.80
2023-02-03T01:03:15.865Z,17.63
2023-02-03T01:05:42.003Z,17.27
2023-02-03T01:08:08.139Z,15.90
2023-02-03T01:10:37.132Z,16.70
2023-02-03T01:13:03.573Z,21.43
2023-02-03T01:15:29.828Z,17.17
2023-02-03T01:17:57.089Z,15.43
2023-02-03T01:20:23.468Z,15.87
2023-02-03T01:22:50.381Z,15.67
2023-02-03T01:25:16.658Z,16.37
2023-02-03T01:27:42.894Z,17.67
2023-02-03T01:30:10.305Z,14.30
2023-02-03T01:32:36.449Z,14.40
2023-02-03T01:35:04.454Z,14.03
2023-02-03T01:37:30.766Z,15.67
2023-02-03T01:39:57.110Z,16.57
2023-02-03T01:42:23.315Z,19.97
2023-02-03T01:44:51.384Z,16.50
2023-02-03T01:47:29.124Z,13.63
2023-02-03T01:50:02.065Z,12.40
2023-02-03T01:52:30.722Z,14.77
2023-02-03T01:55:01.044Z,12.37
2023-02-03T01:57:39.494Z,14.27
2023-02-03T02:00:08.735Z,12.63
2023-02-03T02:02:45.195Z,16.40
2023-02-03T02:05:24.385Z,13.90
2023-02-03T02:07:50.851Z,15.23
2023-02-03T02:10:17.400Z,11.43
2023-02-03T02:12:43.915Z,14.97
2023-02-03T02:15:11.215Z,14.47
2023-02-03T02:18:14.164Z,12.83
2023-02-03T02:20:58.872Z,14.20
2023-02-03T02:24:11.015Z,17.47
2023-02-03T02:27:20.845Z,10.27
2023-02-03T02:30:14.506Z,13.17
2023-02-03T02:32:55.612Z,14.60
2023-02-03T02:35:56.649Z,14.70
2023-02-03T02:38:37.142Z,12.97
2023-02-03T02:41:20.847Z,10.80
2023-02-03T02:44:03.147Z,12.73
2023-02-03T02:46:47.847Z,11.97
2023-02-03T02:49:37.213Z,11.77
2023-02-03T02:52:07.930Z,12.33
2023-02-03T02:54:39.985Z,10.77
2023-02-03T02:57:12.282Z,16.03
2023-02-03T02:59:38.721Z,13.30
2023-02-03T03:02:04.952Z,12.53
2023-02-03T03:04:34.710Z,12.77
2023-02-03T03:07:08.982Z,11.60
2023-02-03T03:09:55.134Z,11.20
2023-02-03T03:12:30.503Z,13.27
2023-02-03T03:15:14.990Z,13.77
2023-02-03T03:17:53.585Z,14.37
2023-02-03T03:20:26.150Z,13.37
2023-02-03T03:23:02.781Z,14.57
2023-02-03T03:25:43.009Z,11.67
2023-02-03T03:28:18.373Z,14.37
2023-02-03T03:30:44.670Z,15.00
2023-02-03T03:33:10.953Z,13.20
2023-02-03T03:36:17.377Z,11.53
2023-02-03T03:39:24.030Z,16.60
2023-02-03T03:42:07.011Z,10.13
2023-02-03T03:44:43.809Z,9.90
2023-02-03T03:47:56.518Z,10.37
2023-02-03T03:50:33.259Z,10.50
2023-02-03T03:53:03.680Z,13.43
2023-02-03T03:55:34.454Z,9.73
2023-02-03T03:58:29.019Z,10.60
2023-02-03T04:01:00.580Z,10.50
2023-02-03T04:03:43.994Z,10.13
2023-02-03T04:06:11.467Z,14.43
2023-02-03T04:08:38.647Z,9.60
2023-02-03T04:11:05.763Z,10.10
2023-02-03T04:13:32.305Z,10.70
2023-02-03T04:15:58.677Z,10.60
2023-02-03T04:18:24.857Z,10.27
2023-02-03T04:20:51.044Z,12.57
2023-02-03T04:23:17.213Z,10.70
2023-02-03T04:25:43.436Z,13.17
2023-02-03T04:28:09.771Z,13.23
2023-02-03T04:30:36.125Z,12.87
2023-02-03T04:33:02.498Z,11.73
2023-02-03T04:35:28.751Z,16.20
2023-02-03T04:37:54.979Z,13.93
2023-02-03T04:40:21.204Z,13.63
2023-02-03T04:42:47.394Z,13.73
2023-02-03T04:45:13.577Z,12.53
2023-02-03T04:47:39.758Z,16.33
2023-02-03T04:50:06.786Z,11.97
2023-02-03T04:52:32.960Z,13.13
2023-02-03T04:54:59.376Z,13.03
2023-02-03T04:57:25.649Z,12.83
2023-02-03T04:59:51.838Z,15.07
2023-02-03T05:02:18.016Z,16.00
2023-02-03T05:04:44.225Z,12.50
2023-02-03T05:07:10.818Z,14.97
2023-02-03T05:09:37.131Z,13.47
2023-02-03T05:12:03.507Z,13.67
2023-02-03T05:14:29.699Z,11.10
2023-02-03T05:16:55.993Z,12.77
2023-02-03T05:19:22.170Z,12.00
2023-02-03T05:21:48.388Z,11.20
2023-02-03T05:24:14.593Z,12.60
2023-02-03T05:26:40.918Z,13.37
2023-02-03T05:29:07.248Z,11.90
2023-02-03T05:31:33.990Z,13.00
2023-02-03T05:34:00.293Z,14.07
2023-02-03T05:36:26.467Z,13.30
2023-02-03T05:38:52.677Z,10.10
2023-02-03T05:41:37.740Z,11.00
2023-02-03T05:44:04.126Z,12.53
2023-02-03T05:46:30.421Z,12.40
2023-02-03T05:48:56.647Z,12.73
2023-02-03T05:51:24.280Z,11.60
2023-02-03T05:53:50.573Z,11.13
2023-02-03T05:56:16.733Z,11.77
2023-02-03T05:58:42.904Z,10.93
2023-02-03T06:01:10.930Z,13.00
2023-02-03T06:03:37.268Z,12.80
2023-02-03T06:06:03.667Z,10.03
2023-02-03T06:08:29.883Z,9.03
2023-02-03T06:10:59.930Z,9.47
2023-02-03T06:13:26.671Z,13.20
2023-02-03T06:15:53.227Z,12.37
2023-02-03T06:18:20.758Z,13.53
2023-02-03T06:20:47.304Z,12.37
2023-02-03T06:23:13.542Z,11.93
2023-02-03T06:25:39.729Z,10.07
2023-02-03T06:28:05.929Z,12.03
2023-02-03T06:30:32.206Z,11.07
2023-02-03T06:32:58.473Z,11.90
2023-02-03T06:35:24.778Z,13.83
2023-02-03T06:37:51.137Z,12.50
2023-02-03T06:40:17.675Z,10.93
2023-02-03T06:42:47.824Z,14.03
2023-02-03T06:45:14.955Z,13.70
2023-02-03T06:47:42.900Z,12.00
2023-02-03T06:50:13.041Z,11.37
2023-02-03T06:52:39.532Z,13.97
2023-02-03T06:55:06.681Z,10.50
2023-02-03T06:57:33.356Z,9.17
2023-02-03T06:59:59.525Z,11.00
2023-02-03T07:02:25.842Z,10.70
2023-02-03T07:04:52.102Z,10.60
2023-02-03T07:07:18.406Z,11.07
2023-02-03T07:09:44.560Z,13.30
2023-02-03T07:12:10.958Z,11.83
2023-02-03T07:14:38.652Z,9.87
2023-02-03T07:17:06.203Z,12.27
2023-02-03T07:19:32.373Z,10.30
2023-02-03T07:21:58.569Z,10.60
2023-02-03T07:24:24.840Z,11.43
2023-02-03T07:26:52.338Z,10.53
2023-02-03T07:29:18.715Z,13.03
2023-02-03T07:31:45.045Z,14.60
2023-02-03T07:34:11.421Z,11.90
2023-02-03T07:36:37.632Z,11.03
2023-02-03T07:39:04.005Z,11.60
2023-02-03T07:41:30.393Z,11.77
2023-02-03T07:43:56.621Z,10.03
2023-02-03T07:46:23.049Z,10.07
2023-02-03T07:48:49.280Z,9.13
2023-02-03T07:51:15.563Z,8.87
2023-02-03T07:53:41.888Z,10.17
2023-02-03T07:56:08.426Z,10.10
2023-02-03T07:58:34.657Z,10.67
2023-02-03T08:01:01.001Z,9.70
2023-02-03T08:03:27.276Z,9.87
2023-02-03T08:05:53.444Z,12.27
2023-02-03T08:08:20.028Z,11.47
2023-02-03T08:10:46.595Z,11.77
2023-02-03T08:13:12.983Z,11.23
2023-02-03T08:15:39.186Z,14.67
2023-02-03T08:18:08.037Z,12.37
2023-02-03T08:20:34.740Z,11.40
2023-02-03T08:23:01.191Z,11.40
2023-02-03T08:25:27.793Z,13.43
2023-02-03T08:27:54.030Z,12.20
2023-02-03T08:30:21.335Z,10.10
2023-02-03T08:32:47.724Z,9.50
2023-02-03T08:35:14.239Z,9.03
2023-02-03T08:37:41.012Z,8.93
2023-02-03T08:40:12.549Z,8.57
2023-02-03T08:42:38.853Z,8.37
2023-02-03T08:45:06.531Z,8.40
2023-02-03T08:47:33.067Z,8.10
2023-02-03T08:49:59.292Z,9.40
2023-02-03T08:52:25.760Z,8.50
2023-02-03T08:54:52.010Z,7.83
2023-02-03T08:57:20.014Z,9.50
2023-02-03T08:59:50.446Z,8.53
2023-02-03T09:02:19.176Z,8.23
2023-02-03T09:04:46.860Z,7.57
2023-02-03T09:07:13.210Z,7.70
2023-02-03T09:09:39.932Z,7.50
2023-02-03T09:12:07.952Z,7.93
2023-02-03T09:14:35.444Z,7.37
2023-02-03T09:17:04.300Z,7.43
2023-02-03T09:19:31.291Z,7.43
2023-02-03T09:21:57.653Z,8.17
2023-02-03T09:24:24.469Z,8.87
2023-02-03T09:26:50.881Z,7.60
2023-02-03T09:29:17.715Z,7.33
2023-02-03T09:31:46.215Z,7.90
2023-02-03T09:34:12.587Z,7.67
2023-02-03T09:36:39.711Z,7.07
2023-02-03T09:39:06.655Z,8.23
2023-02-03T09:42:12.908Z,7.33
2023-02-03T09:45:05.135Z,6.40
2023-02-03T09:47:40.724Z,6.40
2023-02-03T09:50:17.367Z,7.57
2023-02-03T09:52:43.664Z,8.53
2023-02-03T09:55:31.246Z,8.40
2023-02-03T09:58:22.204Z,6.43
2023-02-03T10:00:53.609Z,7.40
2023-02-03T10:03:38.900Z,8.10
2023-02-03T10:06:41.083Z,7.20
2023-02-03T10:09:33.588Z,7.13
2023-02-03T10:12:37.561Z,7.03
2023-02-03T10:15:34.865Z,7.00
2023-02-03T10:18:51.153Z,6.83
2023-02-03T10:21:51.938Z,6.30
2023-02-03T10:24:44.383Z,5.90
2023-02-03T10:27:20.761Z,6.50
2023-02-03T10:30:02.561Z,6.47
2023-02-03T10:32:29.618Z,6.73
2023-02-03T10:34:56.284Z,6.30
2023-02-03T10:37:36.341Z,6.43
2023-02-03T10:40:03.913Z,6.17
2023-02-03T10:42:52.442Z,6.00
2023-02-03T10:45:20.155Z,7.20
2023-02-03T10:47:55.680Z,6.00
2023-02-03T10:50:31.165Z,6.17
2023-02-03T10:53:31.132Z,5.87
2023-02-03T10:56:12.454Z,5.67
2023-02-03T10:58:47.856Z,7.97
2023-02-03T11:01:19.120Z,5.43
2023-02-03T11:04:03.195Z,8.00
2023-02-03T11:06:33.499Z,5.07
2023-02-03T11:09:00.003Z,6.03
2023-02-03T11:11:39.998Z,9.53
2023-02-03T11:14:06.136Z,7.93
2023-02-03T11:16:37.840Z,7.93
2023-02-03T11:19:16.878Z,6.90
2023-02-03T11:21:50.641Z,6.67
2023-02-03T11:24:26.914Z,5.50
2023-02-03T11:26:53.353Z,6.77
2023-02-03T11:29:30.629Z,6.17
2023-02-03T11:32:01.512Z,7.47
2023-02-03T11:34:37.198Z,6.53
2023-02-03T11:37:34.027Z,6.40
2023-02-03T11:40:06.399Z,6.73
2023-02-03T11:42:41.671Z,8.10
2023-02-03T11:45:18.031Z,7.20
2023-02-03T11:47:53.215Z,6.47
2023-02-03T11:50:33.295Z,5.90
2023-02-03T11:53:28.300Z,5.60
2023-02-03T11:56:12.634Z,4.70
2023-02-03T11:58:59.941Z,5.47
2023-02-03T12:01:44.887Z,5.77
2023-02-03T12:04:52.731Z,5.73
2023-02-03T12:07:45.366Z,5.97
2023-02-03T12:10:50.618Z,8.40
2023-02-03T12:13:49.952Z,7.70
2023-02-03T12:16:55.442Z,7.03
2023-02-03T12:20:02.523Z,10.47
2023-02-03T12:23:29.841Z,7.20
2023-02-03T12:26:14.032Z,7.40
2023-02-03T12:29:12.509Z,7.87
2023-02-03T12:32:12.782Z,7.70
2023-02-03T12:35:18.048Z,8.13
2023-02-03T12:38:16.251Z,8.17
2023-02-03T12:40:55.041Z,7.50
2023-02-03T12:43:39.140Z,9.67
2023-02-03T12:46:29.462Z,9.17
2023-02-03T12:49:27.433Z,8.27
2023-02-03T12:52:42.874Z,9.00
2023-02-03T12:55:33.916Z,10.23
2023-02-03T12:58:34.790Z,8.30
2023-02-03T13:01:27.579Z,10.67
2023-02-03T13:04:25.610Z,10.83
2023-02-03T13:07:14.213Z,8.73
2023-02-03T13:09:57.348Z,11.10
2023-02-03T13:12:37.373Z,9.53
2023-02-03T13:15:29.984Z,9.73
2023-02-03T13:18:19.688Z,10.43
2023-02-03T13:20:46.204Z,9.57
2023-02-03T13:23:15.150Z,12.30
2023-02-03T13:26:33.265Z,9.27
2023-02-03T13:29:23.652Z,9.07
2023-02-03T13:32:13.758Z,9.67
2023-02-03T13:34:51.786Z,9.50
2023-02-03T13:37:26.872Z,12.10
2023-02-03T13:40:41.765Z,11.67
2023-02-03T13:43:38.521Z,13.90
2023-02-03T13:46:17.738Z,11.40
2023-02-03T13:48:46.472Z,12.27
2023-02-03T13:51:15.182Z,11.20
2023-02-03T13:53:45.588Z,11.03
2023-02-03T13:56:25.437Z,11.33
2023-02-03T13:59:19.798Z,10.60
2023-02-03T14:01:46.136Z,14.33
2023-02-03T14:04:24.539Z,9.90
2023-02-03T14:06:53.365Z,11.47
2023-02-03T14:09:33.818Z,9.77
2023-02-03T14:12:32.567Z,10.33
2023-02-03T14:15:17.027Z,10.70
2023-02-03T14:17:43.198Z,9.40
2023-02-03T14:20:24.650Z,9.90
2023-02-03T14:23:04.294Z,10.23
2023-02-03T14:25:37.383Z,9.73
2023-02-03T14:28:10.355Z,8.30
2023-02-03T14:31:18.587Z,8.13
2023-02-03T14:34:08.032Z,9.63
2023-02-03T14:36:53.921Z,8.53
2023-02-03T14:39:20.430Z,7.87
2023-02-03T14:42:01.867Z,7.77
2023-02-03T14:44:47.729Z,8.30
2023-02-03T14:47:47.429Z,8.57
2023-02-03T14:50:31.127Z,9.70
2023-02-03T14:53:16.717Z,10.53
2023-02-03T14:56:10.370Z,9.33
2023-02-03T14:58:54.508Z,9.53
2023-02-03T15:01:47.524Z,8.37
2023-02-03T15:04:13.714Z,7.97
2023-02-03T15:06:50.124Z,7.73
2023-02-03T15:09:42.325Z,8.10
2023-02-03T15:12:23.245Z,10.07
2023-02-03T15:14:49.798Z,7.70
2023-02-03T15:17:25.584Z,7.27
2023-02-03T15:19:52.164Z,7.17
2023-02-03T15:22:28.082Z,10.53
2023-02-03T15:25:04.643Z,7.43
2023-02-03T15:27:32.660Z,7.17
2023-02-03T15:30:14.708Z,8.63
2023-02-03T15:32:51.456Z,9.10
2023-02-03T15:35:19.742Z,7.60
2023-02-03T15:37:55.606Z,7.50
2023-02-03T15:40:29.135Z,9.80
2023-02-03T15:43:08.047Z,10.03
2023-02-03T15:45:54.140Z,11.83
2023-02-03T15:48:42.301Z,14.73
2023-02-03T15:51:33.416Z,13.70
2023-02-03T15:54:39.810Z,12.43
2023-02-03T15:57:13.933Z,13.07
2023-02-03T16:00:01.019Z,15.10
2023-02-03T16:02:33.949Z,16.07
2023-02-03T16:05:36.381Z,11.93
2023-02-03T16:08:36.578Z,12.03
2023-02-03T16:11:29.420Z,12.93
2023-02-03T16:14:02.689Z,15.63
2023-02-03T16:17:04.352Z,11.33
2023-02-03T16:19:37.212Z,15.70
2023-02-03T16:22:03.503Z,20.83
2023-02-03T16:24:32.816Z,16.63
2023-02-03T16:27:27.072Z,13.73
2023-02-03T16:30:38.294Z,14.10
2023-02-03T16:33:31.433Z,15.77
2023-02-03T16:36:29.257Z,17.33
2023-02-03T16:39:14.466Z,22.23
2023-02-03T16:41:59.040Z,17.80
2023-02-03T16:44:43.529Z,18.60
2023-02-03T16:47:49.124Z,13.20
2023-02-03T16:50:41.148Z,20.03
2023-02-03T16:53:15.412Z,20.83
2023-02-03T16:55:43.357Z,15.27
2023-02-03T16:58:11.759Z,16.27
2023-02-03T17:00:43.921Z,13.40
2023-02-03T17:03:14.508Z,13.93
2023-02-03T17:05:43.056Z,14.20
2023-02-03T17:08:09.660Z,16.93
2023-02-03T17:10:38.141Z,13.37
2023-02-03T17:13:05.409Z,19.70
2023-02-03T17:15:31.934Z,12.97
2023-02-03T17:17:58.423Z,19.80
2023-02-03T17:20:25.706Z,14.07
2023-02-03T17:22:53.690Z,16.07
2023-02-03T17:25:21.016Z,20.27
2023-02-03T17:27:47.676Z,14.63
2023-02-03T17:30:15.968Z,15.57
2023-02-03T17:32:42.167Z,19.67
2023-02-03T17:35:08.487Z,18.93
2023-02-03T17:37:35.651Z,17.30
2023-02-03T17:54:05.505Z,18.73
2023-02-03T17:56:34.825Z,14.53
2023-02-03T17:59:04.371Z,20.33
2023-02-03T18:01:31.387Z,21.33
2023-02-03T18:04:01.992Z,26.70
2023-02-03T18:06:30.696Z,21.67
2023-02-03T18:09:01.885Z,17.50
2023-02-03T18:11:30.627Z,16.63
2023-02-03T18:13:57.613Z,19.60
2023-02-03T18:16:31.582Z,25.77
2023-02-03T18:19:00.094Z,18.90
2023-02-03T18:21:27.005Z,15.50
2023-02-03T18:23:58.694Z,16.77
2023-02-03T18:26:28.114Z,22.13
2023-02-03T18:28:55.139Z,19.77
2023-02-03T18:31:21.845Z,21.57
2023-02-03T18:33:48.457Z,21.37
2023-02-03T18:36:16.063Z,21.23
2023-02-03T18:38:45.066Z,19.30
2023-02-03T18:41:19.907Z,19.67
2023-02-03T18:43:48.506Z,25.80
2023-02-03T18:46:28.412Z,17.70
2023-02-03T18:48:55.543Z,18.13
2023-02-03T18:51:24.032Z,18.50
2023-02-03T18:53:51.148Z,17.53
2023-02-03T18:56:24.514Z,18.00
2023-02-03T18:58:51.787Z,20.63
2023-02-03T19:01:27.875Z,16.33
2023-02-03T19:04:00.729Z,17.03
2023-02-03T19:06:29.900Z,20.90
2023-02-03T19:08:58.041Z,18.00
2023-02-03T19:11:25.399Z,22.63
2023-02-03T19:13:51.899Z,16.93
2023-02-03T19:16:18.316Z,18.23
2023-02-03T19:18:46.023Z,21.47
2023-02-03T19:21:13.572Z,11.67
2023-02-03T19:23:41.422Z,16.40
2023-02-03T19:26:09.255Z,16.93
2023-02-03T19:28:35.979Z,11.60
2023-02-03T19:31:12.397Z,13.13
2023-02-03T19:33:38.777Z,16.20
2023-02-03T19:36:06.879Z,13.90
2023-02-03T19:38:34.131Z,18.50
2023-02-03T19:41:00.955Z,14.37
2023-02-03T19:43:28.072Z,15.90
2023-02-03T19:45:56.988Z,16.40
2023-02-03T19:48:23.345Z,17.67
2023-02-03T19:50:49.980Z,13.27
2023-02-03T19:53:17.632Z,16.33
2023-02-03T19:55:45.609Z,14.70
2023-02-03T19:58:13.448Z,16.47
2023-02-03T20:00:40.823Z,13.53
2023-02-03T20:03:07.179Z,16.87
2023-02-03T20:05:35.223Z,18.63
2023-02-03T20:08:01.820Z,15.30
2023-02-03T20:10:28.387Z,15.70
2023-02-03T20:12:55.069Z,14.10
2023-02-03T20:15:21.709Z,12.83
2023-02-03T20:17:48.359Z,15.43
2023-02-03T20:20:16.318Z,15.77
2023-02-03T20:22:42.523Z,13.93
2023-02-03T20:25:09.291Z,13.87
2023-02-03T20:27:35.698Z,15.03
2023-02-03T20:30:03.298Z,13.20
2023-02-03T20:32:29.953Z,11.80
2023-02-03T20:34:57.077Z,17.83
2023-02-03T20:37:23.250Z,16.33
2023-02-03T20:39:49.729Z,15.33
2023-02-03T20:42:17.321Z,14.27
2023-02-03T20:44:44.197Z,11.40
2023-02-03T20:47:13.618Z,13.70
2023-02-03T20:49:40.430Z,27.20
2023-02-03T20:52:16.409Z,13.53
2023-02-03T20:54:43.880Z,13.63
2023-02-03T20:57:17.689Z,13.87
2023-02-03T20:59:45.187Z,17.30
2023-02-03T21:02:46.757Z,20.67
2023-02-03T21:05:25.805Z,18.53
2023-02-03T21:07:52.448Z,17.87
2023-02-03T21:10:23.889Z,17.83
2023-02-03T21:12:50.661Z,16.13
2023-02-03T21:15:19.816Z,15.07
2023-02-03T21:17:46.285Z,12.17
2023-02-03T21:20:33.506Z,14.67
2023-02-03T21:23:00.247Z,18.97
2023-02-03T21:25:33.103Z,12.60
2023-02-03T21:28:00.560Z,13.17
2023-02-03T21:30:34.324Z,14.47
2023-02-03T21:33:34.405Z,12.03
2023-02-03T21:36:00.753Z,15.93
2023-02-03T21:38:31.573Z,16.13
2023-02-03T21:41:00.428Z,13.63
2023-02-03T21:43:29.392Z,14.33
2023-02-03T21:45:55.941Z,11.90
2023-02-03T21:48:33.253Z,13.03
2023-02-03T21:51:28.844Z,13.73
2023-02-03T21:54:20.576Z,12.67
2023-02-03T21:56:46.955Z,15.33
2023-02-03T21:59:21.570Z,14.23
2023-02-03T22:01:48.809Z,19.03
2023-02-03T22:04:15.113Z,17.33
2023-02-03T22:06:48.326Z,13.50
2023-02-03T22:09:20.778Z,15.47
2023-02-03T22:11:47.725Z,13.47
2023-02-03T22:14:16.657Z,14.60
2023-02-03T22:16:43.857Z,16.07
2023-02-03T22:19:10.508Z,10.80
2023-02-03T22:21:39.049Z,13.03
2023-02-03T22:24:05.927Z,13.23
2023-02-03T22:26:32.685Z,16.73
2023-02-03T22:28:59.011Z,13.50
2023-02-03T22:31:25.283Z,16.17
2023-02-03T22:33:51.712Z,10.50
2023-02-03T22:36:21.302Z,16.50
2023-02-03T22:38:47.563Z,17.70
2023-02-03T22:41:13.981Z,15.67
2023-02-03T22:43:40.757Z,12.17
2023-02-03T22:46:07.968Z,12.60
2023-02-03T22:48:34.723Z,12.57
2023-02-03T22:51:01.297Z,17.20
2023-02-03T22:53:30.159Z,12.57
2023-02-03T22:55:56.614Z,10.07
2023-02-03T22:58:22.945Z,17.10
2023-02-03T23:00:49.181Z,13.87
2023-02-03T23:03:16.165Z,13.57
2023-02-03T23:05:42.348Z,15.23
2023-02-03T23:08:09.127Z,11.67
2023-02-03T23:10:35.535Z,11.50
2023-02-03T23:13:01.997Z,17.83
2023-02-03T23:15:28.500Z,15.60
2023-02-03T23:17:55.067Z,9.80
2023-02-03T23:20:21.358Z,15.43
2023-02-03T23:22:47.788Z,15.00
2023-02-03T23:25:14.383Z,12.73
2023-02-03T23:27:40.795Z,16.90
2023-02-03T23:30:08.384Z,13.57
2023-02-03T23:32:34.660Z,27.90
2023-02-03T23:35:20.689Z,17.43
2023-02-03T23:37:47.569Z,17.03
2023-02-03T23:40:14.112Z,10.47
2023-02-03T23:42:40.426Z,14.83
2023-02-03T23:45:10.953Z,17.00
2023-02-03T23:47:39.857Z,16.00
2023-02-03T23:50:08.894Z,13.70
2023-02-03T23:52:35.392Z,14.47
2023-02-03T23:55:17.835Z,12.43
2023-02-03T23:57:45.325Z,15.60
